sensor_id;sensor_type;location;lat;lon;timestamp;P1;durP1;ratioP1;P2;durP2;ratioP2
5245;SDS011;54412;51.206;6.888;2022-12-07T00:01:32;26.50;;;16.13;;
5245;SDS011;54412;51.206;6.888;2022-12-07T00:04:01;27.20;;;18.77;;
5245;SDS011;54412;51.206;6.888;2022-12-07T00:06:35;20.13;;;17.23;;
5245;SDS011;54412;51.206;6.888;2022-12-07T00:09:07;20.40;;;16.80;;
5245;SDS011;54412;51.206;6.888;2022-12-07T00:11:37;22.73;;;17.83;;
5245;SDS011;54412;51.206;6.888;2022-12-07T00:14:04;24.53;;;17.50;;
5245;SDS011;54412;51.206;6.888;2022-12-07T00:16:35;21.33;;;17.73;;
5245;SDS011;54412;51.206;6.888;2022-12-07T00:19:01;30.63;;;19.10;;
5245;SDS011;54412;51.206;6.888;2022-12-07T00:21:30;21.37;;;18.03;;
5245;SDS011;54412;51.206;6.888;2022-12-07T00:23:59;21.93;;;16.87;;
5245;SDS011;54412;51.206;6.888;2022-12-07T00:26:27;22.80;;;17.77;;
5245;SDS011;54412;51.206;6.888;2022-12-07T00:29:03;24.90;;;18.33;;
5245;SDS011;54412;51.206;6.888;2022-12-07T00:31:33;23.37;;;18.07;;
5245;SDS011;54412;51.206;6.888;2022-12-07T00:34:04;22.83;;;17.70;;
5245;SDS011;54412;51.206;6.888;2022-12-07T00:36:31;21.50;;;18.07;;
5245;SDS011;54412;51.206;6.888;2022-12-07T00:38:57;19.17;;;16.60;;
5245;SDS011;54412;51.206;6.888;2022-12-07T00:41:25;24.13;;;19.30;;
5245;SDS011;54412;51.206;6.888;2022-12-07T00:43:54;19.77;;;17.53;;
5245;SDS011;54412;51.206;6.888;2022-12-07T00:46:21;24.23;;;18.77;;
5245;SDS011;54412;51.206;6.888;2022-12-07T00:48:48;23.23;;;19.00;;
5245;SDS011;54412;51.206;6.888;2022-12-07T00:51:17;24.20;;;18.70;;
5245;SDS011;54412;51.206;6.888;2022-12-07T00:53:44;23.40;;;18.73;;
5245;SDS011;54412;51.206;6.888;2022-12-07T00:56:20;23.63;;;17.50;;
5245;SDS011;54412;51.206;6.888;2022-12-07T00:58:59;22.60;;;19.07;;
5245;SDS011;54412;51.206;6.888;2022-12-07T01:01:27;25.57;;;19.80;;
5245;SDS011;54412;51.206;6.888;2022-12-07T01:04:00;26.40;;;18.80;;
5245;SDS011;54412;51.206;6.888;2022-12-07T01:06:28;24.83;;;19.73;;
5245;SDS011;54412;51.206;6.888;2022-12-07T01:08:55;23.23;;;18.27;;
5245;SDS011;54412;51.206;6.888;2022-12-07T01:11:22;21.93;;;19.27;;
5245;SDS011;54412;51.206;6.888;2022-12-07T01:13:51;28.07;;;20.80;;
5245;SDS011;54412;51.206;6.888;2022-12-07T01:16:19;26.47;;;19.77;;
5245;SDS011;54412;51.206;6.888;2022-12-07T01:18:47;26.50;;;20.03;;
5245;SDS011;54412;51.206;6.888;2022-12-07T01:21:21;24.33;;;19.23;;
5245;SDS011;54412;51.206;6.888;2022-12-07T01:23:49;23.50;;;18.67;;
5245;SDS011;54412;51.206;6.888;2022-12-07T01:26:17;21.57;;;19.27;;
5245;SDS011;54412;51.206;6.888;2022-12-07T01:28:46;28.70;;;21.27;;
5245;SDS011;54412;51.206;6.888;2022-12-07T01:31:14;27.00;;;19.37;;
5245;SDS011;54412;51.206;6.888;2022-12-07T01:33:44;26.90;;;20.30;;
5245;SDS011;54412;51.206;6.888;2022-12-07T01:36:14;26.83;;;19.07;;
5245;SDS011;54412;51.206;6.888;2022-12-07T01:38:50;26.20;;;20.07;;
5245;SDS011;54412;51.206;6.888;2022-12-07T01:41:21;24.10;;;20.10;;
5245;SDS011;54412;51.206;6.888;2022-12-07T01:46:35;31.10;;;19.93;;
5245;SDS011;54412;51.206;6.888;2022-12-07T01:49:02;22.97;;;18.63;;
5245;SDS011;54412;51.206;6.888;2022-12-07T01:51:33;20.80;;;17.30;;
5245;SDS011;54412;51.206;6.888;2022-12-07T01:54:02;23.70;;;19.33;;
5245;SDS011;54412;51.206;6.888;2022-12-07T01:56:28;25.90;;;19.50;;
5245;SDS011;54412;51.206;6.888;2022-12-07T01:58:55;25.53;;;20.80;;
5245;SDS011;54412;51.206;6.888;2022-12-07T02:01:25;24.10;;;19.53;;
5245;SDS011;54412;51.206;6.888;2022-12-07T02:03:51;22.63;;;19.13;;
5245;SDS011;54412;51.206;6.888;2022-12-07T02:06:19;21.17;;;18.50;;
5245;SDS011;54412;51.206;6.888;2022-12-07T02:08:49;20.80;;;18.47;;
5245;SDS011;54412;51.206;6.888;2022-12-07T02:11:15;21.17;;;17.10;;
5245;SDS011;54412;51.206;6.888;2022-12-07T02:13:42;22.80;;;18.53;;
5245;SDS011;54412;51.206;6.888;2022-12-07T02:28:12;21.33;;;18.87;;
5245;SDS011;54412;51.206;6.888;2022-12-07T02:30:53;25.80;;;19.20;;
5245;SDS011;54412;51.206;6.888;2022-12-07T02:33:37;26.47;;;18.50;;
5245;SDS011;54412;51.206;6.888;2022-12-07T02:43:09;23.93;;;17.87;;
5245;SDS011;54412;51.206;6.888;2022-12-07T02:46:01;23.47;;;18.30;;
5245;SDS011;54412;51.206;6.888;2022-12-07T02:48:34;23.70;;;16.70;;
5245;SDS011;54412;51.206;6.888;2022-12-07T02:51:03;21.23;;;19.07;;
5245;SDS011;54412;51.206;6.888;2022-12-07T02:53:33;20.60;;;18.40;;
5245;SDS011;54412;51.206;6.888;2022-12-07T03:08:13;26.50;;;19.00;;
5245;SDS011;54412;51.206;6.888;2022-12-07T03:11:05;21.73;;;19.40;;
5245;SDS011;54412;51.206;6.888;2022-12-07T03:13:39;19.33;;;17.27;;
5245;SDS011;54412;51.206;6.888;2022-12-07T03:16:37;20.77;;;17.87;;
5245;SDS011;54412;51.206;6.888;2022-12-07T03:19:18;20.60;;;18.07;;
5245;SDS011;54412;51.206;6.888;2022-12-07T03:21:49;19.87;;;17.77;;
5245;SDS011;54412;51.206;6.888;2022-12-07T03:24:24;25.03;;;16.80;;
5245;SDS011;54412;51.206;6.888;2022-12-07T03:27:12;24.77;;;17.90;;
5245;SDS011;54412;51.206;6.888;2022-12-07T03:29:49;20.77;;;17.17;;
5245;SDS011;54412;51.206;6.888;2022-12-07T03:35:14;23.83;;;17.53;;
5245;SDS011;54412;51.206;6.888;2022-12-07T03:38:00;20.33;;;17.13;;
5245;SDS011;54412;51.206;6.888;2022-12-07T03:41:29;23.23;;;17.53;;
5245;SDS011;54412;51.206;6.888;2022-12-07T03:43:35;19.80;;;17.67;;
5245;SDS011;54412;51.206;6.888;2022-12-07T03:46:06;20.80;;;15.87;;
5245;SDS011;54412;51.206;6.888;2022-12-07T03:51:55;21.00;;;17.77;;
5245;SDS011;54412;51.206;6.888;2022-12-07T03:57:03;19.90;;;17.17;;
5245;SDS011;54412;51.206;6.888;2022-12-07T03:59:33;18.63;;;16.63;;
5245;SDS011;54412;51.206;6.888;2022-12-07T04:02:03;18.83;;;14.80;;
5245;SDS011;54412;51.206;6.888;2022-12-07T04:04:31;19.30;;;16.27;;
5245;SDS011;54412;51.206;6.888;2022-12-07T04:06:58;32.93;;;17.30;;
5245;SDS011;54412;51.206;6.888;2022-12-07T04:09:24;20.60;;;18.17;;
5245;SDS011;54412;51.206;6.888;2022-12-07T04:11:50;19.33;;;16.13;;
5245;SDS011;54412;51.206;6.888;2022-12-07T04:14:16;17.87;;;15.47;;
5245;SDS011;54412;51.206;6.888;2022-12-07T04:16:45;19.63;;;16.87;;
5245;SDS011;54412;51.206;6.888;2022-12-07T04:19:22;17.77;;;15.87;;
5245;SDS011;54412;51.206;6.888;2022-12-07T04:21:59;25.23;;;16.10;;
5245;SDS011;54412;51.206;6.888;2022-12-07T04:24:27;20.43;;;16.23;;
5245;SDS011;54412;51.206;6.888;2022-12-07T04:26:53;22.23;;;16.00;;
5245;SDS011;54412;51.206;6.888;2022-12-07T04:29:20;20.30;;;16.50;;
5245;SDS011;54412;51.206;6.888;2022-12-07T04:31:46;23.70;;;16.80;;
5245;SDS011;54412;51.206;6.888;2022-12-07T04:34:12;17.37;;;14.83;;
5245;SDS011;54412;51.206;6.888;2022-12-07T04:36:39;18.00;;;16.00;;
5245;SDS011;54412;51.206;6.888;2022-12-07T04:39:06;21.70;;;16.37;;
5245;SDS011;54412;51.206;6.888;2022-12-07T04:41:38;18.97;;;15.90;;
5245;SDS011;54412;51.206;6.888;2022-12-07T04:44:04;21.10;;;16.80;;
5245;SDS011;54412;51.206;6.888;2022-12-07T04:46:32;19.13;;;15.30;;
5245;SDS011;54412;51.206;6.888;2022-12-07T04:48:58;18.90;;;14.37;;
5245;SDS011;54412;51.206;6.888;2022-12-07T04:51:25;16.97;;;15.17;;
5245;SDS011;54412;51.206;6.888;2022-12-07T04:53:54;18.23;;;15.57;;
5245;SDS011;54412;51.206;6.888;2022-12-07T04:56:21;19.63;;;15.57;;
5245;SDS011;54412;51.206;6.888;2022-12-07T04:58:48;20.50;;;15.03;;
5245;SDS011;54412;51.206;6.888;2022-12-07T05:01:15;20.70;;;15.50;;
5245;SDS011;54412;51.206;6.888;2022-12-07T05:03:42;15.63;;;13.03;;
5245;SDS011;54412;51.206;6.888;2022-12-07T05:06:08;18.73;;;13.73;;
5245;SDS011;54412;51.206;6.888;2022-12-07T05:08:35;19.13;;;15.50;;
5245;SDS011;54412;51.206;6.888;2022-12-07T05:11:01;20.63;;;13.77;;
5245;SDS011;54412;51.206;6.888;2022-12-07T05:13:28;34.17;;;18.27;;
5245;SDS011;54412;51.206;6.888;2022-12-07T05:15:54;36.60;;;22.00;;
5245;SDS011;54412;51.206;6.888;2022-12-07T05:18:20;34.70;;;21.00;;
5245;SDS011;54412;51.206;6.888;2022-12-07T05:20:46;38.83;;;21.43;;
5245;SDS011;54412;51.206;6.888;2022-12-07T05:23:12;35.70;;;21.07;;
5245;SDS011;54412;51.206;6.888;2022-12-07T05:25:38;28.77;;;19.17;;
5245;SDS011;54412;51.206;6.888;2022-12-07T05:28:04;22.93;;;16.60;;
5245;SDS011;54412;51.206;6.888;2022-12-07T05:30:31;15.27;;;13.20;;
5245;SDS011;54412;51.206;6.888;2022-12-07T05:32:57;21.73;;;13.97;;
5245;SDS011;54412;51.206;6.888;2022-12-07T05:35:23;12.80;;;11.50;;
5245;SDS011;54412;51.206;6.888;2022-12-07T05:37:49;14.90;;;12.43;;
5245;SDS011;54412;51.206;6.888;2022-12-07T05:40:14;13.90;;;11.10;;
5245;SDS011;54412;51.206;6.888;2022-12-07T05:42:41;13.43;;;11.93;;
5245;SDS011;54412;51.206;6.888;2022-12-07T05:45:07;16.30;;;13.10;;
5245;SDS011;54412;51.206;6.888;2022-12-07T05:47:34;13.10;;;11.40;;
5245;SDS011;54412;51.206;6.888;2022-12-07T05:50:01;20.23;;;11.03;;
5245;SDS011;54412;51.206;6.888;2022-12-07T05:52:27;12.27;;;10.33;;
5245;SDS011;54412;51.206;6.888;2022-12-07T05:54:53;20.23;;;11.00;;
5245;SDS011;54412;51.206;6.888;2022-12-07T05:57:19;12.17;;;10.23;;
5245;SDS011;54412;51.206;6.888;2022-12-07T05:59:44;15.83;;;10.20;;
5245;SDS011;54412;51.206;6.888;2022-12-07T06:02:11;14.23;;;11.30;;
5245;SDS011;54412;51.206;6.888;2022-12-07T06:04:41;21.10;;;11.53;;
5245;SDS011;54412;51.206;6.888;2022-12-07T06:07:11;12.90;;;10.80;;
5245;SDS011;54412;51.206;6.888;2022-12-07T06:09:40;14.03;;;9.47;;
5245;SDS011;54412;51.206;6.888;2022-12-07T06:12:06;15.40;;;10.47;;
5245;SDS011;54412;51.206;6.888;2022-12-07T06:14:53;15.00;;;9.57;;
5245;SDS011;54412;51.206;6.888;2022-12-07T06:17:19;12.40;;;9.53;;
5245;SDS011;54412;51.206;6.888;2022-12-07T06:19:45;11.30;;;9.80;;
5245;SDS011;54412;51.206;6.888;2022-12-07T06:22:10;14.80;;;9.93;;
5245;SDS011;54412;51.206;6.888;2022-12-07T06:24:37;10.90;;;9.47;;
5245;SDS011;54412;51.206;6.888;2022-12-07T06:27:04;14.40;;;9.17;;
5245;SDS011;54412;51.206;6.888;2022-12-07T06:29:30;9.93;;;8.93;;
5245;SDS011;54412;51.206;6.888;2022-12-07T06:31:57;12.70;;;10.30;;
5245;SDS011;54412;51.206;6.888;2022-12-07T06:34:23;18.80;;;10.60;;
5245;SDS011;54412;51.206;6.888;2022-12-07T06:36:50;13.93;;;9.87;;
5245;SDS011;54412;51.206;6.888;2022-12-07T06:39:18;11.37;;;9.67;;
5245;SDS011;54412;51.206;6.888;2022-12-07T06:41:46;11.47;;;9.50;;
5245;SDS011;54412;51.206;6.888;2022-12-07T06:44:12;13.57;;;9.93;;
5245;SDS011;54412;51.206;6.888;2022-12-07T06:46:38;11.57;;;9.33;;
5245;SDS011;54412;51.206;6.888;2022-12-07T06:49:04;12.93;;;9.50;;
5245;SDS011;54412;51.206;6.888;2022-12-07T06:51:31;22.90;;;10.30;;
5245;SDS011;54412;51.206;6.888;2022-12-07T06:53:58;17.50;;;10.20;;
5245;SDS011;54412;51.206;6.888;2022-12-07T06:56:24;12.47;;;9.67;;
5245;SDS011;54412;51.206;6.888;2022-12-07T06:58:49;11.17;;;9.87;;
5245;SDS011;54412;51.206;6.888;2022-12-07T07:01:16;21.57;;;9.77;;
5245;SDS011;54412;51.206;6.888;2022-12-07T07:03:44;14.13;;;9.43;;
5245;SDS011;54412;51.206;6.888;2022-12-07T07:06:11;12.60;;;9.70;;
5245;SDS011;54412;51.206;6.888;2022-12-07T07:08:38;12.63;;;9.50;;
5245;SDS011;54412;51.206;6.888;2022-12-07T07:11:05;16.03;;;9.20;;
5245;SDS011;54412;51.206;6.888;2022-12-07T07:13:32;17.77;;;9.40;;
5245;SDS011;54412;51.206;6.888;2022-12-07T07:15:59;10.83;;;9.23;;
5245;SDS011;54412;51.206;6.888;2022-12-07T07:18:25;11.37;;;9.20;;
5245;SDS011;54412;51.206;6.888;2022-12-07T07:20:52;17.63;;;9.37;;
5245;SDS011;54412;51.206;6.888;2022-12-07T07:23:18;10.87;;;8.43;;
5245;SDS011;54412;51.206;6.888;2022-12-07T07:25:45;16.07;;;10.23;;
5245;SDS011;54412;51.206;6.888;2022-12-07T07:28:12;13.03;;;8.53;;
5245;SDS011;54412;51.206;6.888;2022-12-07T07:30:38;10.70;;;8.80;;
5245;SDS011;54412;51.206;6.888;2022-12-07T07:33:04;15.20;;;9.43;;
5245;SDS011;54412;51.206;6.888;2022-12-07T07:35:31;9.67;;;8.20;;
5245;SDS011;54412;51.206;6.888;2022-12-07T07:37:59;11.43;;;8.47;;
5245;SDS011;54412;51.206;6.888;2022-12-07T07:40:25;13.17;;;10.07;;
5245;SDS011;54412;51.206;6.888;2022-12-07T07:42:52;15.97;;;9.57;;
5245;SDS011;54412;51.206;6.888;2022-12-07T07:45:19;10.50;;;8.53;;
5245;SDS011;54412;51.206;6.888;2022-12-07T07:47:47;13.30;;;9.00;;
5245;SDS011;54412;51.206;6.888;2022-12-07T07:50:14;13.60;;;10.03;;
5245;SDS011;54412;51.206;6.888;2022-12-07T07:52:41;10.97;;;8.63;;
5245;SDS011;54412;51.206;6.888;2022-12-07T07:55:07;10.33;;;9.13;;
5245;SDS011;54412;51.206;6.888;2022-12-07T07:57:34;9.90;;;8.87;;
5245;SDS011;54412;51.206;6.888;2022-12-07T08:00:04;14.07;;;9.17;;
5245;SDS011;54412;51.206;6.888;2022-12-07T08:02:33;13.90;;;9.27;;
5245;SDS011;54412;51.206;6.888;2022-12-07T08:04:59;14.63;;;9.97;;
5245;SDS011;54412;51.206;6.888;2022-12-07T08:07:24;17.03;;;9.97;;
5245;SDS011;54412;51.206;6.888;2022-12-07T08:09:52;19.50;;;9.30;;
5245;SDS011;54412;51.206;6.888;2022-12-07T08:12:17;11.53;;;8.83;;
5245;SDS011;54412;51.206;6.888;2022-12-07T08:14:43;10.27;;;8.30;;
5245;SDS011;54412;51.206;6.888;2022-12-07T08:17:09;9.93;;;8.27;;
5245;SDS011;54412;51.206;6.888;2022-12-07T08:19:34;13.57;;;9.23;;
5245;SDS011;54412;51.206;6.888;2022-12-07T08:22:00;9.40;;;8.43;;
5245;SDS011;54412;51.206;6.888;2022-12-07T08:24:26;16.67;;;10.30;;
5245;SDS011;54412;51.206;6.888;2022-12-07T08:26:52;9.43;;;8.53;;
5245;SDS011;54412;51.206;6.888;2022-12-07T08:29:17;13.13;;;9.50;;
5245;SDS011;54412;51.206;6.888;2022-12-07T08:31:43;12.00;;;9.10;;
5245;SDS011;54412;51.206;6.888;2022-12-07T08:34:12;12.43;;;9.77;;
5245;SDS011;54412;51.206;6.888;2022-12-07T08:36:38;13.60;;;9.50;;
5245;SDS011;54412;51.206;6.888;2022-12-07T08:39:04;15.10;;;10.03;;
5245;SDS011;54412;51.206;6.888;2022-12-07T08:41:31;9.90;;;8.90;;
5245;SDS011;54412;51.206;6.888;2022-12-07T08:43:57;13.70;;;9.20;;
5245;SDS011;54412;51.206;6.888;2022-12-07T08:46:24;14.43;;;8.40;;
5245;SDS011;54412;51.206;6.888;2022-12-07T08:49:15;13.97;;;9.43;;
5245;SDS011;54412;51.206;6.888;2022-12-07T08:51:48;11.43;;;8.50;;
5245;SDS011;54412;51.206;6.888;2022-12-07T08:54:15;16.30;;;8.60;;
5245;SDS011;54412;51.206;6.888;2022-12-07T08:56:43;11.00;;;8.70;;
5245;SDS011;54412;51.206;6.888;2022-12-07T08:59:12;13.23;;;8.33;;
5245;SDS011;54412;51.206;6.888;2022-12-07T09:01:40;8.87;;;7.80;;
5245;SDS011;54412;51.206;6.888;2022-12-07T09:04:06;15.10;;;8.87;;
5245;SDS011;54412;51.206;6.888;2022-12-07T09:06:32;12.83;;;7.87;;
5245;SDS011;54412;51.206;6.888;2022-12-07T09:08:58;9.33;;;8.10;;
5245;SDS011;54412;51.206;6.888;2022-12-07T09:11:26;15.80;;;7.63;;
5245;SDS011;54412;51.206;6.888;2022-12-07T09:13:52;8.57;;;7.37;;
5245;SDS011;54412;51.206;6.888;2022-12-07T09:16:18;13.70;;;8.10;;
5245;SDS011;54412;51.206;6.888;2022-12-07T09:18:43;12.70;;;7.63;;
5245;SDS011;54412;51.206;6.888;2022-12-07T09:21:09;9.70;;;7.97;;
5245;SDS011;54412;51.206;6.888;2022-12-07T09:23:35;14.57;;;8.17;;
5245;SDS011;54412;51.206;6.888;2022-12-07T09:26:02;9.57;;;6.93;;
5245;SDS011;54412;51.206;6.888;2022-12-07T09:28:32;11.37;;;7.37;;
5245;SDS011;54412;51.206;6.888;2022-12-07T09:30:58;9.60;;;6.63;;
5245;SDS011;54412;51.206;6.888;2022-12-07T09:33:23;12.17;;;6.97;;
5245;SDS011;54412;51.206;6.888;2022-12-07T09:35:49;12.60;;;6.23;;
5245;SDS011;54412;51.206;6.888;2022-12-07T09:38:17;12.27;;;6.90;;
5245;SDS011;54412;51.206;6.888;2022-12-07T09:40:44;9.03;;;6.00;;
5245;SDS011;54412;51.206;6.888;2022-12-07T09:43:12;16.03;;;7.20;;
5245;SDS011;54412;51.206;6.888;2022-12-07T09:45:48;9.50;;;7.20;;
5245;SDS011;54412;51.206;6.888;2022-12-07T09:48:21;12.43;;;5.90;;
5245;SDS011;54412;51.206;6.888;2022-12-07T09:51:12;10.47;;;6.17;;
5245;SDS011;54412;51.206;6.888;2022-12-07T09:53:42;11.50;;;5.70;;
5245;SDS011;54412;51.206;6.888;2022-12-07T09:56:15;10.97;;;6.83;;
5245;SDS011;54412;51.206;6.888;2022-12-07T09:58:44;13.80;;;7.10;;
5245;SDS011;54412;51.206;6.888;2022-12-07T10:01:12;11.17;;;6.87;;
5245;SDS011;54412;51.206;6.888;2022-12-07T10:03:44;12.80;;;6.77;;
5245;SDS011;54412;51.206;6.888;2022-12-07T10:06:19;11.50;;;6.70;;
5245;SDS011;54412;51.206;6.888;2022-12-07T10:08:46;14.63;;;7.57;;
5245;SDS011;54412;51.206;6.888;2022-12-07T10:11:12;6.07;;;5.20;;
5245;SDS011;54412;51.206;6.888;2022-12-07T10:13:40;8.73;;;6.53;;
5245;SDS011;54412;51.206;6.888;2022-12-07T10:24:38;19.90;;;6.43;;
5245;SDS011;54412;51.206;6.888;2022-12-07T10:27:56;17.10;;;5.70;;
5245;SDS011;54412;51.206;6.888;2022-12-07T10:29:57;8.53;;;5.90;;
5245;SDS011;54412;51.206;6.888;2022-12-07T10:32:27;10.93;;;6.50;;
5245;SDS011;54412;51.206;6.888;2022-12-07T10:37:54;17.20;;;7.63;;
5245;SDS011;54412;51.206;6.888;2022-12-07T10:40:33;10.10;;;6.23;;
5245;SDS011;54412;51.206;6.888;2022-12-07T10:49:20;11.87;;;6.37;;
5245;SDS011;54412;51.206;6.888;2022-12-07T10:52:13;14.60;;;6.73;;
5245;SDS011;54412;51.206;6.888;2022-12-07T11:03:41;13.63;;;5.10;;
5245;SDS011;54412;51.206;6.888;2022-12-07T11:15:41;10.43;;;5.30;;
5245;SDS011;54412;51.206;6.888;2022-12-07T11:18:32;12.40;;;5.60;;
5245;SDS011;54412;51.206;6.888;2022-12-07T11:21:24;11.63;;;4.50;;
5245;SDS011;54412;51.206;6.888;2022-12-07T11:29:44;19.57;;;5.13;;
5245;SDS011;54412;51.206;6.888;2022-12-07T11:35:36;10.40;;;5.07;;
5245;SDS011;54412;51.206;6.888;2022-12-07T11:38:28;8.03;;;4.63;;
5245;SDS011;54412;51.206;6.888;2022-12-07T11:41:28;8.93;;;4.13;;
5245;SDS011;54412;51.206;6.888;2022-12-07T11:44:02;7.47;;;4.30;;
5245;SDS011;54412;51.206;6.888;2022-12-07T11:49:21;10.13;;;4.53;;
5245;SDS011;54412;51.206;6.888;2022-12-07T11:52:35;11.70;;;3.83;;
5245;SDS011;54412;51.206;6.888;2022-12-07T11:55:26;8.23;;;4.13;;
5245;SDS011;54412;51.206;6.888;2022-12-07T11:58:22;5.50;;;3.93;;
5245;SDS011;54412;51.206;6.888;2022-12-07T12:06:42;7.53;;;4.00;;
5245;SDS011;54412;51.206;6.888;2022-12-07T12:14:48;14.40;;;4.50;;
5245;SDS011;54412;51.206;6.888;2022-12-07T12:20:25;6.63;;;3.80;;
5245;SDS011;54412;51.206;6.888;2022-12-07T12:23:06;11.13;;;4.57;;
5245;SDS011;54412;51.206;6.888;2022-12-07T12:25:46;12.07;;;4.73;;
5245;SDS011;54412;51.206;6.888;2022-12-07T12:31:15;8.97;;;4.00;;
5245;SDS011;54412;51.206;6.888;2022-12-07T12:33:58;5.57;;;4.40;;
5245;SDS011;54412;51.206;6.888;2022-12-07T12:46:59;10.90;;;7.20;;
5245;SDS011;54412;51.206;6.888;2022-12-07T12:52:49;19.13;;;11.17;;
5245;SDS011;54412;51.206;6.888;2022-12-07T13:00:46;9.13;;;5.27;;
5245;SDS011;54412;51.206;6.888;2022-12-07T13:03:21;13.50;;;7.70;;
5245;SDS011;54412;51.206;6.888;2022-12-07T13:08:50;9.23;;;5.30;;
5245;SDS011;54412;51.206;6.888;2022-12-07T13:11:20;10.47;;;5.97;;
5245;SDS011;54412;51.206;6.888;2022-12-07T13:20:04;5.03;;;3.87;;
5245;SDS011;54412;51.206;6.888;2022-12-07T13:28:10;9.07;;;4.00;;
5245;SDS011;54412;51.206;6.888;2022-12-07T13:30:47;10.10;;;4.50;;
5245;SDS011;54412;51.206;6.888;2022-12-07T13:33:27;9.13;;;3.87;;
5245;SDS011;54412;51.206;6.888;2022-12-07T13:35:54;6.03;;;4.00;;
5245;SDS011;54412;51.206;6.888;2022-12-07T13:43:42;16.13;;;3.60;;
5245;SDS011;54412;51.206;6.888;2022-12-07T13:46:17;5.47;;;3.70;;
5245;SDS011;54412;51.206;6.888;2022-12-07T13:48:52;7.17;;;4.00;;
5245;SDS011;54412;51.206;6.888;2022-12-07T13:54:00;5.70;;;3.83;;
5245;SDS011;54412;51.206;6.888;2022-12-07T13:56:35;9.13;;;3.30;;
5245;SDS011;54412;51.206;6.888;2022-12-07T13:59:01;8.67;;;2.90;;
5245;SDS011;54412;51.206;6.888;2022-12-07T14:01:35;4.00;;;2.50;;
5245;SDS011;54412;51.206;6.888;2022-12-07T14:04:17;5.50;;;2.80;;
5245;SDS011;54412;51.206;6.888;2022-12-07T14:06:52;7.83;;;4.47;;
5245;SDS011;54412;51.206;6.888;2022-12-07T14:09:22;9.83;;;3.13;;
5245;SDS011;54412;51.206;6.888;2022-12-07T14:11:51;5.60;;;3.30;;
5245;SDS011;54412;51.206;6.888;2022-12-07T14:14:21;6.10;;;2.67;;
5245;SDS011;54412;51.206;6.888;2022-12-07T14:16:55;5.93;;;2.67;;
5245;SDS011;54412;51.206;6.888;2022-12-07T14:24:45;4.27;;;2.90;;
5245;SDS011;54412;51.206;6.888;2022-12-07T14:27:21;9.63;;;3.37;;
5245;SDS011;54412;51.206;6.888;2022-12-07T14:29:55;7.30;;;2.77;;
5245;SDS011;54412;51.206;6.888;2022-12-07T14:32:25;4.73;;;3.77;;
5245;SDS011;54412;51.206;6.888;2022-12-07T14:34:55;7.97;;;3.10;;
5245;SDS011;54412;51.206;6.888;2022-12-07T14:37:36;7.83;;;3.90;;
5245;SDS011;54412;51.206;6.888;2022-12-07T14:40:04;5.17;;;2.87;;
5245;SDS011;54412;51.206;6.888;2022-12-07T14:42:31;13.33;;;3.40;;
5245;SDS011;54412;51.206;6.888;2022-12-07T14:44:59;13.07;;;3.13;;
5245;SDS011;54412;51.206;6.888;2022-12-07T14:47:25;7.00;;;3.00;;
5245;SDS011;54412;51.206;6.888;2022-12-07T14:49:51;8.37;;;3.00;;
5245;SDS011;54412;51.206;6.888;2022-12-07T14:52:21;7.50;;;2.63;;
5245;SDS011;54412;51.206;6.888;2022-12-07T14:54:54;6.60;;;2.70;;
5245;SDS011;54412;51.206;6.888;2022-12-07T14:57:20;9.67;;;3.17;;
5245;SDS011;54412;51.206;6.888;2022-12-07T14:59:46;10.90;;;4.53;;
5245;SDS011;54412;51.206;6.888;2022-12-07T15:02:13;12.03;;;4.80;;
5245;SDS011;54412;51.206;6.888;2022-12-07T15:04:40;12.47;;;5.10;;
5245;SDS011;54412;51.206;6.888;2022-12-07T15:07:09;15.07;;;4.20;;
5245;SDS011;54412;51.206;6.888;2022-12-07T15:09:43;9.77;;;3.50;;
5245;SDS011;54412;51.206;6.888;2022-12-07T15:12:09;12.30;;;3.03;;
5245;SDS011;54412;51.206;6.888;2022-12-07T15:14:35;12.60;;;4.70;;
5245;SDS011;54412;51.206;6.888;2022-12-07T15:17:00;9.80;;;3.83;;
5245;SDS011;54412;51.206;6.888;2022-12-07T15:19:26;11.83;;;3.37;;
5245;SDS011;54412;51.206;6.888;2022-12-07T15:21:52;5.40;;;3.13;;
5245;SDS011;54412;51.206;6.888;2022-12-07T15:24:18;5.43;;;3.60;;
5245;SDS011;54412;51.206;6.888;2022-12-07T15:26:44;21.47;;;3.40;;
5245;SDS011;54412;51.206;6.888;2022-12-07T15:29:11;12.10;;;3.90;;
5245;SDS011;54412;51.206;6.888;2022-12-07T15:31:37;12.87;;;5.80;;
5245;SDS011;54412;51.206;6.888;2022-12-07T15:34:03;18.77;;;6.20;;
5245;SDS011;54412;51.206;6.888;2022-12-07T15:36:30;9.47;;;5.77;;
5245;SDS011;54412;51.206;6.888;2022-12-07T15:38:58;11.20;;;5.40;;
5245;SDS011;54412;51.206;6.888;2022-12-07T15:41:24;15.43;;;5.10;;
5245;SDS011;54412;51.206;6.888;2022-12-07T15:43:50;10.17;;;5.17;;
5245;SDS011;54412;51.206;6.888;2022-12-07T15:46:35;13.63;;;4.70;;
5245;SDS011;54412;51.206;6.888;2022-12-07T15:49:05;9.83;;;4.70;;
5245;SDS011;54412;51.206;6.888;2022-12-07T15:51:36;10.77;;;5.13;;
5245;SDS011;54412;51.206;6.888;2022-12-07T15:54:02;11.13;;;5.70;;
5245;SDS011;54412;51.206;6.888;2022-12-07T15:56:28;6.57;;;4.80;;
5245;SDS011;54412;51.206;6.888;2022-12-07T15:58:55;11.33;;;6.00;;
5245;SDS011;54412;51.206;6.888;2022-12-07T16:01:21;11.50;;;6.53;;
5245;SDS011;54412;51.206;6.888;2022-12-07T16:03:47;11.10;;;6.60;;
5245;SDS011;54412;51.206;6.888;2022-12-07T16:06:17;15.33;;;7.70;;
5245;SDS011;54412;51.206;6.888;2022-12-07T16:08:43;15.53;;;7.93;;
5245;SDS011;54412;51.206;6.888;2022-12-07T16:11:11;8.63;;;6.50;;
5245;SDS011;54412;51.206;6.888;2022-12-07T16:13:37;12.80;;;7.07;;
5245;SDS011;54412;51.206;6.888;2022-12-07T16:16:05;9.97;;;6.60;;
5245;SDS011;54412;51.206;6.888;2022-12-07T16:18:34;9.37;;;7.20;;
5245;SDS011;54412;51.206;6.888;2022-12-07T16:21:00;16.80;;;8.13;;
5245;SDS011;54412;51.206;6.888;2022-12-07T16:23:26;16.30;;;8.80;;
5245;SDS011;54412;51.206;6.888;2022-12-07T16:25:52;7.13;;;6.40;;
5245;SDS011;54412;51.206;6.888;2022-12-07T16:28:18;15.43;;;6.50;;
5245;SDS011;54412;51.206;6.888;2022-12-07T16:30:44;8.93;;;5.80;;
5245;SDS011;54412;51.206;6.888;2022-12-07T16:33:10;10.20;;;4.90;;
5245;SDS011;54412;51.206;6.888;2022-12-07T16:35:39;8.03;;;5.83;;
5245;SDS011;54412;51.206;6.888;2022-12-07T16:38:06;12.33;;;5.73;;
5245;SDS011;54412;51.206;6.888;2022-12-07T16:40:32;9.33;;;4.73;;
5245;SDS011;54412;51.206;6.888;2022-12-07T16:42:58;12.23;;;5.27;;
5245;SDS011;54412;51.206;6.888;2022-12-07T16:45:23;13.27;;;5.57;;
5245;SDS011;54412;51.206;6.888;2022-12-07T16:47:49;8.97;;;5.60;;
5245;SDS011;54412;51.206;6.888;2022-12-07T16:50:15;8.90;;;5.40;;
5245;SDS011;54412;51.206;6.888;2022-12-07T16:52:40;10.93;;;5.53;;
5245;SDS011;54412;51.206;6.888;2022-12-07T16:55:06;10.33;;;5.33;;
5245;SDS011;54412;51.206;6.888;2022-12-07T16:57:32;5.70;;;4.73;;
5245;SDS011;54412;51.206;6.888;2022-12-07T16:59:58;7.97;;;5.20;;
5245;SDS011;54412;51.206;6.888;2022-12-07T17:02:24;11.07;;;5.63;;
5245;SDS011;54412;51.206;6.888;2022-12-07T17:04:50;11.40;;;6.00;;
5245;SDS011;54412;51.206;6.888;2022-12-07T17:07:16;7.83;;;6.10;;
5245;SDS011;54412;51.206;6.888;2022-12-07T17:09:42;11.60;;;6.07;;
5245;SDS011;54412;51.206;6.888;2022-12-07T17:12:08;6.43;;;5.43;;
5245;SDS011;54412;51.206;6.888;2022-12-07T17:14:33;7.67;;;5.60;;
5245;SDS011;54412;51.206;6.888;2022-12-07T17:17:18;10.10;;;6.03;;
5245;SDS011;54412;51.206;6.888;2022-12-07T17:19:44;8.20;;;6.20;;
5245;SDS011;54412;51.206;6.888;2022-12-07T17:22:10;13.93;;;8.40;;
5245;SDS011;54412;51.206;6.888;2022-12-07T17:24:37;11.10;;;7.80;;
5245;SDS011;54412;51.206;6.888;2022-12-07T17:27:03;8.50;;;6.47;;
5245;SDS011;54412;51.206;6.888;2022-12-07T17:29:29;14.80;;;6.53;;
5245;SDS011;54412;51.206;6.888;2022-12-07T17:31:55;11.10;;;6.57;;
5245;SDS011;54412;51.206;6.888;2022-12-07T17:34:22;8.20;;;6.70;;
5245;SDS011;54412;51.206;6.888;2022-12-07T17:36:47;10.30;;;6.53;;